首页
METAR-TAF:

METAR-TAF

机场 :

努瓦克肖特, 毛里塔尼亚

努瓦克肖特国际机场

纬度: 18-18-36N, 经度: 015-58-11W, 海拔: 3米

当前天气观测

该预报发布于35分钟前的21:30 UTC
风速5节,风向东北
温度 19°C
湿度 32%
气压 1017 hPa
能見度: 6000

METAR: GQNO 172130Z 04005KT 6000 NSC 19/02 Q1017 NOSIG

时间: 22:05 (22:05 UTC)

预报

该预报发布于5小时和5分钟前的17:00 UTC
预报有效从17日的 18点(UTC)到 18日的 24点(UTC)
风速14节,风向东北
能見度: 4500
高吹尘
成为
从 17日的 19点(UTC)到 17日的 21点(UTC)
风速8节,风向东北
能見度: 6000
短暂存在
从 18日的 09点(UTC)到 18日的 15点(UTC)
风速13节,风向东转东北
能見度: 4000
高吹尘

TAF: GQNO 171700Z 1718/1824 04014KT 4500 BLDU NSC BECMG 1719/1721 05008KT 6000 NSW TEMPO 1809/1815 06013KT 4000 BLDU

超过4000个机场的气象观测和天气预报(METAR&TAF报告)。

可查询的气象台以黄色和红色小点在地图上表示。

将鼠标移到小点上方,可查看气象台名称。

然后点击查看天气观测和预报。

如需切换地图:点击带黑十字的绿色按钮放大地图;点击带横线的绿色按钮缩小地图;或者点击绿色箭头查看邻近地区的地图。


METAR-TAF: